createdAt,value
2023-03-27T00:00:37.608Z,91.05
2023-03-27T00:01:37.629Z,90.95
2023-03-27T00:02:37.747Z,90.95
2023-03-27T00:03:37.771Z,90.77
2023-03-27T00:04:37.677Z,90.77
2023-03-27T00:05:37.695Z,90.39
2023-03-27T00:06:37.725Z,90.39
2023-03-27T00:07:37.729Z,90.48
2023-03-27T00:08:37.746Z,90.39
2023-03-27T00:09:37.764Z,90.95
2023-03-27T00:10:37.781Z,90.86
2023-03-27T00:11:37.800Z,90.86
2023-03-27T00:12:37.814Z,91.05
2023-03-27T00:13:48.915Z,91.14
2023-03-27T00:14:37.859Z,91.33
2023-03-27T00:15:37.861Z,91.43
2023-03-27T00:16:37.949Z,91.71
2023-03-27T00:17:37.938Z,91.76
2023-03-27T00:18:37.918Z,91.52
2023-03-27T00:19:37.929Z,91.67
2023-03-27T00:20:37.959Z,91.57
2023-03-27T00:21:37.968Z,92.00
2023-03-27T00:22:37.990Z,91.90
2023-03-27T00:23:38.035Z,92.43
2023-03-27T00:24:38.025Z,92.33
2023-03-27T00:25:38.040Z,91.95
2023-03-27T00:26:38.054Z,91.95
2023-03-27T00:27:38.070Z,92.24
2023-03-27T00:28:38.090Z,92.52
2023-03-27T00:29:38.114Z,92.24
2023-03-27T00:30:38.155Z,92.61
2023-03-27T00:31:38.151Z,92.61
2023-03-27T00:32:38.219Z,92.61
2023-03-27T00:33:38.176Z,92.52
2023-03-27T00:34:38.192Z,92.52
2023-03-27T00:35:38.247Z,92.61
2023-03-27T00:36:38.280Z,92.80
2023-03-27T00:37:38.240Z,93.27
2023-03-27T00:38:38.265Z,93.27
2023-03-27T00:39:38.280Z,93.27
2023-03-27T00:40:38.318Z,93.27
2023-03-27T00:41:38.326Z,93.65
2023-03-27T00:42:38.330Z,93.18
2023-03-27T00:43:38.342Z,93.08
2023-03-27T00:44:39.732Z,93.18
2023-03-27T00:45:38.379Z,93.37
2023-03-27T00:46:38.411Z,93.46
2023-03-27T00:47:38.429Z,93.46
2023-03-27T00:48:38.434Z,93.37
2023-03-27T00:49:38.446Z,93.18
2023-03-27T00:50:38.468Z,93.65
2023-03-27T00:51:38.495Z,93.75
2023-03-27T00:52:38.502Z,93.65
2023-03-27T00:53:38.516Z,94.23
2023-03-27T00:54:38.534Z,94.42
2023-03-27T00:55:38.548Z,94.23
2023-03-27T00:56:38.939Z,93.94
2023-03-27T00:57:38.583Z,93.94
2023-03-27T00:58:38.601Z,94.23
2023-03-27T00:59:38.618Z,94.23
2023-03-27T01:00:38.635Z,94.13
2023-03-27T01:01:38.669Z,94.51
2023-03-27T01:02:38.760Z,94.04
2023-03-27T01:03:38.736Z,94.70
2023-03-27T01:04:38.700Z,94.70
2023-03-27T01:05:38.724Z,94.51
2023-03-27T01:06:38.736Z,94.70
2023-03-27T01:07:38.749Z,94.32
2023-03-27T01:08:38.770Z,94.79
2023-03-27T01:09:38.808Z,94.98
2023-03-27T01:10:38.802Z,94.89
2023-03-27T01:11:38.827Z,94.89
2023-03-27T01:12:38.839Z,95.64
2023-03-27T01:13:38.852Z,95.55
2023-03-27T01:14:38.876Z,95.36
2023-03-27T01:15:38.911Z,95.83
2023-03-27T01:16:38.910Z,95.93
2023-03-27T01:17:38.975Z,96.02
2023-03-27T01:18:38.939Z,95.93
2023-03-27T01:19:38.960Z,96.02
2023-03-27T01:20:39.029Z,96.50
2023-03-27T01:21:38.988Z,96.21
2023-03-27T01:22:39.007Z,96.50
2023-03-27T01:24:00.202Z,96.59
2023-03-27T01:24:39.045Z,96.31
2023-03-27T01:25:39.056Z,97.16
2023-03-27T01:26:39.073Z,96.69
2023-03-27T01:27:39.087Z,96.97
2023-03-27T01:28:39.111Z,96.88
2023-03-27T01:29:39.120Z,96.88
2023-03-27T01:30:39.139Z,96.88
2023-03-27T01:31:39.215Z,97.54
2023-03-27T01:32:39.226Z,97.35
2023-03-27T01:33:39.187Z,97.49
2023-03-27T01:34:39.204Z,97.16
2023-03-27T01:35:39.260Z,97.25
2023-03-27T01:36:39.232Z,97.30
2023-03-27T01:37:39.256Z,97.20
2023-03-27T01:38:39.278Z,97.49
2023-03-27T01:39:39.294Z,97.25
2023-03-27T01:40:39.302Z,97.63
2023-03-27T01:41:39.320Z,97.68
2023-03-27T01:42:39.341Z,97.77
2023-03-27T01:43:39.359Z,98.25
2023-03-27T01:44:43.785Z,98.34
2023-03-27T01:45:39.392Z,98.53
2023-03-27T01:46:39.533Z,98.15
2023-03-27T01:47:39.444Z,98.44
2023-03-27T01:48:39.464Z,98.44
2023-03-27T01:49:39.466Z,98.63
2023-03-27T01:50:39.480Z,98.44
2023-03-27T01:51:39.511Z,98.63
2023-03-27T01:52:39.511Z,98.44
2023-03-27T01:53:39.527Z,99.38
2023-03-27T01:54:39.547Z,99.19
2023-03-27T01:55:39.557Z,99.95
2023-03-27T01:56:39.595Z,99.95
2023-03-27T01:57:49.691Z,99.76
2023-03-27T01:58:39.611Z,99.29
2023-03-27T01:59:39.633Z,99.76
2023-03-27T02:00:51.711Z,99.99
2023-03-27T02:01:39.705Z,99.99
2023-03-27T02:02:39.735Z,99.99
2023-03-27T02:03:39.705Z,99.99
2023-03-27T02:04:39.730Z,99.99
2023-03-27T02:05:39.730Z,99.99
2023-03-27T02:06:39.747Z,99.99
2023-03-27T02:07:39.762Z,99.99
2023-03-27T02:08:39.776Z,99.99
2023-03-27T02:09:39.792Z,99.99
2023-03-27T02:10:39.808Z,99.99
2023-03-27T02:11:39.823Z,99.99
2023-03-27T02:12:39.843Z,99.99
2023-03-27T02:13:39.871Z,99.99
2023-03-27T02:14:39.879Z,99.99
2023-03-27T02:15:39.889Z,99.99
2023-03-27T02:16:39.951Z,99.99
2023-03-27T02:17:39.998Z,99.99
2023-03-27T02:18:39.942Z,99.99
2023-03-27T02:19:39.955Z,99.99
2023-03-27T02:20:39.984Z,99.99
2023-03-27T02:21:40.060Z,99.99
2023-03-27T02:22:40.007Z,99.99
2023-03-27T02:23:40.029Z,99.99
2023-03-27T02:24:40.071Z,99.99
2023-03-27T02:25:40.054Z,99.99
2023-03-27T02:26:40.076Z,99.99
2023-03-27T02:27:40.087Z,99.99
2023-03-27T02:28:40.102Z,99.99
2023-03-27T02:29:40.123Z,99.99
2023-03-27T02:30:40.142Z,99.99
2023-03-27T02:31:40.190Z,99.99
2023-03-27T02:32:40.298Z,99.99
2023-03-27T02:33:40.193Z,99.99
2023-03-27T02:34:40.204Z,99.99
2023-03-27T02:35:40.254Z,99.99
2023-03-27T02:36:40.247Z,99.99
2023-03-27T02:37:40.261Z,99.99
2023-03-27T02:38:40.272Z,99.99
2023-03-27T02:39:40.295Z,99.99
2023-03-27T02:40:40.561Z,99.99
2023-03-27T02:41:40.318Z,99.99
2023-03-27T02:42:40.338Z,99.99
2023-03-27T02:43:40.352Z,99.99
2023-03-27T02:44:46.638Z,99.99
2023-03-27T02:45:40.424Z,99.99
2023-03-27T02:46:40.404Z,99.99
2023-03-27T02:47:40.448Z,99.99
2023-03-27T02:48:40.444Z,99.99
2023-03-27T02:49:40.454Z,99.99
2023-03-27T02:50:40.470Z,99.99
2023-03-27T02:51:40.482Z,99.99
2023-03-27T02:52:40.502Z,99.99
2023-03-27T02:53:40.518Z,99.99
2023-03-27T02:54:40.535Z,99.99
2023-03-27T02:55:40.551Z,99.99
2023-03-27T02:56:40.580Z,99.99
2023-03-27T02:57:40.583Z,99.99
2023-03-27T02:58:40.605Z,99.99
2023-03-27T02:59:40.624Z,99.99
2023-03-27T03:00:40.633Z,99.99
2023-03-27T03:01:40.669Z,99.99
2023-03-27T03:02:40.744Z,99.99
2023-03-27T03:03:40.680Z,99.99
2023-03-27T03:04:40.699Z,99.99
2023-03-27T03:05:40.716Z,99.99
2023-03-27T03:06:40.736Z,99.99
2023-03-27T03:07:40.748Z,99.99
2023-03-27T03:08:40.782Z,99.99
2023-03-27T03:09:41.161Z,99.99
2023-03-27T03:10:40.798Z,99.99
2023-03-27T03:11:40.812Z,99.99
2023-03-27T03:12:40.830Z,99.99
2023-03-27T03:13:40.848Z,99.99
2023-03-27T03:14:40.862Z,99.99
2023-03-27T03:15:40.884Z,99.99
2023-03-27T03:16:40.918Z,99.99
2023-03-27T03:17:40.963Z,99.99
2023-03-27T03:18:40.926Z,99.99
2023-03-27T03:19:40.937Z,99.99
2023-03-27T03:20:40.962Z,99.99
2023-03-27T03:21:40.978Z,99.99
2023-03-27T03:22:40.994Z,99.99
2023-03-27T03:23:41.011Z,99.99
2023-03-27T03:24:41.031Z,99.99
2023-03-27T03:25:41.039Z,99.99
2023-03-27T03:26:41.059Z,99.99
2023-03-27T03:27:41.077Z,99.99
2023-03-27T03:28:41.096Z,99.99
2023-03-27T03:29:41.107Z,99.99
2023-03-27T03:30:41.156Z,99.99
2023-03-27T03:31:41.136Z,99.99
2023-03-27T03:32:41.167Z,99.99
2023-03-27T03:33:41.166Z,99.99
2023-03-27T03:34:41.187Z,99.99
2023-03-27T03:35:41.223Z,99.99
2023-03-27T03:36:41.218Z,99.99
2023-03-27T03:37:41.236Z,99.99
2023-03-27T03:38:41.254Z,99.99
2023-03-27T03:39:41.278Z,99.99
2023-03-27T03:40:41.283Z,99.99
2023-03-27T03:41:41.301Z,99.99
2023-03-27T03:42:41.318Z,99.99
2023-03-27T03:43:41.336Z,99.99
2023-03-27T03:44:41.354Z,99.99
2023-03-27T03:45:41.369Z,99.99
2023-03-27T03:46:41.383Z,99.99
2023-03-27T03:47:41.421Z,99.99
2023-03-27T03:48:41.419Z,99.99
2023-03-27T03:49:41.430Z,99.99
2023-03-27T03:50:41.444Z,99.99
2023-03-27T03:51:41.479Z,99.99
2023-03-27T03:52:41.500Z,99.99
2023-03-27T03:53:41.503Z,99.99
2023-03-27T03:54:41.513Z,99.99
2023-03-27T03:55:41.529Z,99.99
2023-03-27T03:56:41.707Z,99.99
2023-03-27T03:57:41.562Z,99.99
2023-03-27T03:58:41.577Z,99.99
2023-03-27T03:59:41.609Z,99.99
2023-03-27T04:00:41.608Z,99.99
2023-03-27T04:01:41.662Z,99.99
2023-03-27T04:02:41.718Z,99.99
2023-03-27T04:03:41.755Z,99.99
2023-03-27T04:04:41.674Z,99.99
2023-03-27T04:05:41.686Z,99.99
2023-03-27T04:06:41.705Z,99.99
2023-03-27T04:07:41.739Z,99.99
2023-03-27T04:08:41.736Z,99.99
2023-03-27T04:09:41.752Z,99.99
2023-03-27T04:10:41.773Z,99.99
2023-03-27T04:11:41.783Z,99.99
2023-03-27T04:12:41.800Z,99.99
2023-03-27T04:13:41.874Z,99.99
2023-03-27T04:14:41.834Z,99.99
2023-03-27T04:15:41.861Z,99.99
2023-03-27T04:16:41.865Z,99.99
2023-03-27T04:17:41.887Z,99.99
2023-03-27T04:18:42.027Z,99.99
2023-03-27T04:19:41.912Z,99.99
2023-03-27T04:20:41.930Z,99.99
2023-03-27T04:21:41.944Z,99.99
2023-03-27T04:22:41.961Z,99.99
2023-03-27T04:23:41.982Z,99.99
2023-03-27T04:24:41.996Z,99.99
2023-03-27T04:25:42.057Z,99.99
2023-03-27T04:26:42.026Z,99.99
2023-03-27T04:27:42.045Z,99.99
2023-03-27T04:28:42.071Z,99.99
2023-03-27T04:29:42.079Z,99.99
2023-03-27T04:30:42.094Z,99.99
2023-03-27T04:31:42.172Z,99.99
2023-03-27T04:32:42.188Z,99.99
2023-03-27T04:33:42.145Z,99.99
2023-03-27T04:34:42.162Z,99.99
2023-03-27T04:35:42.195Z,99.99
2023-03-27T04:36:42.213Z,99.99
2023-03-27T04:37:42.214Z,99.99
2023-03-27T04:38:42.231Z,99.99
2023-03-27T04:39:42.242Z,99.99
2023-03-27T04:40:42.270Z,99.99
2023-03-27T04:41:42.275Z,99.99
2023-03-27T04:42:42.292Z,99.99
2023-03-27T04:43:42.315Z,99.99
2023-03-27T04:44:42.335Z,99.99
2023-03-27T04:45:42.351Z,99.99
2023-03-27T04:46:42.442Z,99.99
2023-03-27T04:47:42.421Z,99.99
2023-03-27T04:48:42.398Z,99.99
2023-03-27T04:49:42.412Z,99.99
2023-03-27T04:50:42.424Z,99.99
2023-03-27T04:51:42.445Z,99.99
2023-03-27T04:52:42.457Z,99.99
2023-03-27T04:53:42.470Z,99.99
2023-03-27T04:54:42.484Z,99.99
2023-03-27T04:55:42.502Z,99.99
2023-03-27T04:56:42.542Z,99.99
2023-03-27T04:57:42.540Z,99.99
2023-03-27T04:58:42.575Z,99.99
2023-03-27T04:59:42.568Z,99.99
2023-03-27T05:00:42.607Z,99.99
2023-03-27T05:01:42.646Z,99.99
2023-03-27T05:02:42.654Z,99.99
2023-03-27T05:03:42.660Z,99.99
2023-03-27T05:04:42.647Z,99.99
2023-03-27T05:05:42.662Z,99.99
2023-03-27T05:06:42.676Z,99.99
2023-03-27T05:07:42.693Z,99.99
2023-03-27T05:08:42.714Z,99.99
2023-03-27T05:09:42.740Z,99.99
2023-03-27T05:10:42.751Z,99.99
2023-03-27T05:11:42.758Z,99.99
2023-03-27T05:12:42.790Z,99.99
2023-03-27T05:13:42.792Z,99.99
2023-03-27T05:14:42.801Z,99.99
2023-03-27T05:15:42.833Z,99.99
2023-03-27T05:16:42.886Z,99.99
2023-03-27T05:17:42.882Z,99.99
2023-03-27T05:18:42.869Z,99.99
2023-03-27T05:19:42.884Z,99.99
2023-03-27T05:20:42.934Z,99.99
2023-03-27T05:21:42.919Z,99.99
2023-03-27T05:22:42.937Z,99.99
2023-03-27T05:23:42.949Z,99.99
2023-03-27T05:24:42.968Z,99.99
2023-03-27T05:25:42.980Z,99.99
2023-03-27T05:26:43.016Z,99.99
2023-03-27T05:27:43.012Z,99.99
2023-03-27T05:28:43.028Z,99.99
2023-03-27T05:29:46.858Z,99.99
2023-03-27T05:30:43.109Z,99.99
2023-03-27T05:31:43.076Z,99.99
2023-03-27T05:32:43.125Z,99.99
2023-03-27T05:33:43.110Z,99.99
2023-03-27T05:34:43.125Z,99.99
2023-03-27T05:35:43.221Z,99.99
2023-03-27T05:36:43.178Z,99.99
2023-03-27T05:37:43.213Z,99.99
2023-03-27T05:38:43.188Z,99.99
2023-03-27T05:39:43.215Z,99.99
2023-03-27T05:40:43.227Z,99.99
2023-03-27T05:41:43.244Z,99.99
2023-03-27T05:42:43.254Z,99.99
2023-03-27T05:43:43.270Z,99.99
2023-03-27T05:44:43.299Z,99.99
2023-03-27T05:45:43.355Z,99.99
2023-03-27T05:46:43.390Z,99.99
2023-03-27T05:47:43.363Z,99.99
2023-03-27T05:48:43.354Z,99.99
2023-03-27T05:49:43.375Z,99.99
2023-03-27T05:50:43.385Z,99.99
2023-03-27T05:51:47.180Z,99.99
2023-03-27T05:52:43.427Z,99.99
2023-03-27T05:53:43.437Z,99.99
2023-03-27T05:54:43.450Z,99.99
2023-03-27T05:55:43.475Z,99.99
2023-03-27T05:56:43.540Z,99.99
2023-03-27T05:57:43.504Z,99.99
2023-03-27T05:58:43.516Z,99.99
2023-03-27T05:59:43.537Z,99.99
2023-03-27T06:00:43.551Z,99.99
2023-03-27T06:01:43.568Z,99.99
2023-03-27T06:02:43.735Z,99.99
2023-03-27T06:03:43.700Z,99.99
2023-03-27T06:04:43.679Z,99.99
2023-03-27T06:05:43.633Z,99.99
2023-03-27T06:06:43.650Z,99.99
2023-03-27T06:07:43.921Z,99.99
2023-03-27T06:08:43.683Z,99.99
2023-03-27T06:09:43.708Z,99.99
2023-03-27T06:10:43.716Z,99.99
2023-03-27T06:11:43.733Z,99.99
2023-03-27T06:12:43.751Z,99.99
2023-03-27T06:13:43.769Z,99.99
2023-03-27T06:14:43.812Z,99.99
2023-03-27T06:15:43.836Z,99.99
2023-03-27T06:16:43.824Z,99.99
2023-03-27T06:17:43.898Z,99.99
2023-03-27T06:18:43.858Z,99.99
2023-03-27T06:19:43.868Z,99.99
2023-03-27T06:20:43.885Z,99.99
2023-03-27T06:21:44.754Z,99.99
2023-03-27T06:22:43.921Z,99.99
2023-03-27T06:23:43.939Z,99.29
2023-03-27T06:24:43.952Z,98.72
2023-03-27T06:25:43.968Z,98.82
2023-03-27T06:26:43.987Z,98.44
2023-03-27T06:27:44.038Z,98.30
2023-03-27T06:28:44.019Z,97.92
2023-03-27T06:29:44.038Z,95.45
2023-03-27T06:30:44.060Z,94.13
2023-03-27T06:31:44.127Z,93.08
2023-03-27T06:32:44.121Z,93.46
2023-03-27T06:33:44.111Z,92.33
2023-03-27T06:34:44.127Z,92.61
2023-03-27T06:35:44.188Z,91.80
2023-03-27T06:36:44.166Z,91.80
2023-03-27T06:37:44.194Z,91.99
2023-03-27T06:38:44.205Z,90.86
2023-03-27T06:39:44.216Z,90.48
2023-03-27T06:40:44.246Z,89.53
2023-03-27T06:41:44.252Z,89.58
2023-03-27T06:42:44.272Z,89.06
2023-03-27T06:43:44.300Z,88.29
2023-03-27T06:44:44.309Z,89.06
2023-03-27T06:45:44.332Z,89.39
2023-03-27T06:46:45.905Z,90.81
2023-03-27T06:47:54.018Z,91.47
2023-03-27T06:48:44.403Z,92.14
2023-03-27T06:49:44.400Z,92.42
2023-03-27T06:50:44.423Z,93.37
2023-03-27T06:51:44.543Z,93.94
2023-03-27T06:52:44.460Z,94.46
2023-03-27T06:53:44.478Z,94.60
2023-03-27T06:54:44.496Z,95.60
2023-03-27T06:55:44.509Z,95.60
2023-03-27T06:56:44.637Z,95.79
2023-03-27T06:57:44.542Z,96.36
2023-03-27T06:58:44.564Z,96.36
2023-03-27T06:59:44.587Z,97.21
2023-03-27T07:00:44.601Z,97.02
2023-03-27T07:01:44.676Z,97.40
2023-03-27T07:02:44.677Z,97.02
2023-03-27T07:03:44.654Z,97.30
2023-03-27T07:04:54.220Z,97.21
2023-03-27T07:05:44.738Z,96.92
2023-03-27T07:06:44.730Z,97.59
2023-03-27T07:07:44.894Z,97.30
2023-03-27T07:08:45.491Z,97.30
2023-03-27T07:09:44.956Z,97.35
2023-03-27T07:10:45.837Z,96.78
2023-03-27T07:11:44.794Z,97.07
2023-03-27T07:12:44.817Z,96.78
2023-03-27T07:13:44.829Z,97.16
2023-03-27T07:14:44.846Z,96.97
2023-03-27T07:15:44.866Z,96.69
2023-03-27T07:16:44.994Z,96.12
2023-03-27T07:17:49.025Z,95.74
2023-03-27T07:18:44.925Z,96.03
2023-03-27T07:19:44.942Z,96.12
2023-03-27T07:20:44.954Z,96.22
2023-03-27T07:21:44.971Z,95.65
2023-03-27T07:22:44.992Z,95.84
2023-03-27T07:23:45.008Z,95.84
2023-03-27T07:24:45.024Z,96.12
2023-03-27T07:25:45.048Z,95.84
2023-03-27T07:26:45.064Z,95.45
2023-03-27T07:27:45.087Z,95.65
2023-03-27T07:28:45.182Z,95.74
2023-03-27T07:29:45.126Z,95.45
2023-03-27T07:30:45.136Z,95.74
2023-03-27T07:32:45.337Z,94.89
2023-03-27T07:33:45.306Z,94.89
2023-03-27T07:34:45.220Z,94.13
2023-03-27T07:35:45.415Z,94.13
2023-03-27T07:36:45.247Z,94.23
2023-03-27T07:37:45.266Z,93.56
2023-03-27T07:38:45.289Z,93.46
2023-03-27T07:39:45.301Z,93.56
2023-03-27T07:40:45.318Z,93.27
2023-03-27T07:41:45.343Z,93.46
2023-03-27T07:42:45.375Z,93.37
2023-03-27T07:43:45.376Z,93.46
2023-03-27T07:44:45.398Z,93.46
2023-03-27T07:45:45.439Z,92.80
2023-03-27T07:46:45.433Z,92.61
2023-03-27T07:47:45.501Z,92.66
2023-03-27T07:48:45.478Z,92.38
2023-03-27T07:49:45.491Z,92.38
2023-03-27T07:50:45.510Z,92.38
2023-03-27T07:51:45.525Z,92.18
2023-03-27T07:52:45.538Z,91.90
2023-03-27T07:53:45.563Z,91.33
2023-03-27T07:54:45.590Z,91.24
2023-03-27T07:55:45.595Z,90.95
2023-03-27T07:56:45.679Z,90.76
2023-03-27T07:57:59.916Z,90.67
2023-03-27T07:58:45.709Z,90.19
2023-03-27T07:59:45.674Z,90.10
2023-03-27T08:00:45.695Z,90.19
2023-03-27T08:01:45.708Z,90.19
2023-03-27T08:02:45.773Z,90.10
2023-03-27T08:03:45.833Z,90.19
2023-03-27T08:04:45.845Z,89.43
2023-03-27T08:05:45.788Z,89.91
2023-03-27T08:06:45.804Z,89.62
2023-03-27T08:07:45.823Z,90.00
2023-03-27T08:08:45.842Z,89.81
2023-03-27T08:09:45.861Z,89.34
2023-03-27T08:10:45.875Z,89.53
2023-03-27T08:11:45.892Z,90.48
2023-03-27T08:12:45.912Z,90.86
2023-03-27T08:13:45.934Z,90.67
2023-03-27T08:14:45.949Z,90.67
2023-03-27T08:15:45.966Z,90.29
2023-03-27T08:16:46.009Z,90.10
2023-03-27T08:17:46.057Z,90.38
2023-03-27T08:18:46.020Z,89.43
2023-03-27T08:19:46.038Z,90.00
2023-03-27T08:20:46.058Z,89.95
2023-03-27T08:21:46.079Z,90.33
2023-03-27T08:22:46.094Z,90.05
2023-03-27T08:23:46.110Z,89.58
2023-03-27T08:24:46.134Z,88.91
2023-03-27T08:25:46.159Z,89.20
2023-03-27T08:26:46.167Z,89.00
2023-03-27T08:27:46.190Z,88.43
2023-03-27T08:28:46.221Z,88.62
2023-03-27T08:29:46.231Z,88.06
2023-03-27T08:30:46.299Z,88.01
2023-03-27T08:31:46.266Z,87.53
2023-03-27T08:32:46.338Z,86.68
2023-03-27T08:33:46.303Z,86.49
2023-03-27T08:34:46.324Z,86.39
2023-03-27T08:35:46.385Z,86.30
2023-03-27T08:36:46.360Z,85.16
2023-03-27T08:37:46.387Z,84.97
2023-03-27T08:38:46.419Z,84.01
2023-03-27T08:39:46.419Z,84.21
2023-03-27T08:40:46.443Z,84.97
2023-03-27T08:41:46.457Z,84.68
2023-03-27T08:42:46.484Z,84.01
2023-03-27T08:43:46.490Z,83.73
2023-03-27T08:44:46.518Z,84.01
2023-03-27T08:45:46.546Z,83.73
2023-03-27T08:46:46.611Z,82.69
2023-03-27T08:47:46.620Z,82.97
2023-03-27T08:48:46.597Z,82.12
2023-03-27T08:49:46.617Z,82.69
2023-03-27T08:50:46.640Z,82.40
2023-03-27T08:51:46.656Z,82.73
2023-03-27T08:52:46.678Z,82.73
2023-03-27T08:53:46.696Z,82.31
2023-03-27T08:54:46.722Z,82.73
2023-03-27T08:55:46.738Z,82.92
2023-03-27T08:56:46.799Z,82.54
2023-03-27T08:57:46.776Z,82.45
2023-03-27T08:58:46.795Z,81.78
2023-03-27T08:59:46.819Z,82.26
2023-03-27T09:00:46.836Z,82.54
2023-03-27T09:01:46.991Z,83.59
2023-03-27T09:02:46.931Z,82.69
2023-03-27T09:03:47.039Z,81.40
2023-03-27T09:04:46.923Z,81.45
2023-03-27T09:05:46.935Z,81.55
2023-03-27T09:06:46.962Z,82.59
2023-03-27T09:07:46.976Z,82.59
2023-03-27T09:08:47.020Z,82.64
2023-03-27T09:09:47.016Z,82.40
2023-03-27T09:10:47.036Z,82.69
2023-03-27T09:11:47.053Z,83.07
2023-03-27T09:12:47.075Z,82.16
2023-03-27T09:13:47.109Z,81.17
2023-03-27T09:14:47.119Z,80.35
2023-03-27T09:15:47.158Z,80.22
2023-03-27T09:16:47.176Z,80.55
2023-03-27T09:17:47.211Z,81.21
2023-03-27T09:18:47.197Z,80.55
2023-03-27T09:19:47.215Z,80.26
2023-03-27T09:20:47.234Z,79.88
2023-03-27T09:21:47.258Z,79.31
2023-03-27T09:22:47.274Z,78.74
2023-03-27T09:23:47.299Z,78.55
2023-03-27T09:24:47.312Z,77.60
2023-03-27T09:25:47.331Z,77.51
2023-03-27T09:26:52.689Z,78.08
2023-03-27T09:27:47.371Z,78.17
2023-03-27T09:28:48.978Z,78.45
2023-03-27T09:29:47.410Z,77.31
2023-03-27T09:30:47.436Z,77.03
2023-03-27T09:31:47.650Z,77.51
2023-03-27T09:32:47.506Z,77.22
2023-03-27T09:33:47.486Z,77.03
2023-03-27T09:34:47.511Z,76.93
2023-03-27T09:35:47.607Z,76.08
2023-03-27T09:36:47.552Z,75.32
2023-03-27T09:37:47.566Z,75.23
2023-03-27T09:38:47.592Z,74.88
2023-03-27T09:39:47.614Z,75.64
2023-03-27T09:40:47.632Z,76.50
2023-03-27T09:41:47.656Z,76.12
2023-03-27T09:42:47.674Z,76.03
2023-03-27T09:43:47.692Z,75.36
2023-03-27T09:44:47.708Z,75.36
2023-03-27T09:45:47.742Z,74.31
2023-03-27T09:46:47.805Z,72.99
2023-03-27T09:47:47.792Z,73.08
2023-03-27T09:48:47.794Z,73.74
2023-03-27T09:49:47.814Z,72.99
2023-03-27T09:50:47.833Z,73.46
2023-03-27T09:51:47.873Z,72.70
2023-03-27T09:52:47.875Z,71.94
2023-03-27T09:53:47.891Z,72.32
2023-03-27T09:54:47.923Z,72.41
2023-03-27T09:55:47.934Z,72.13
2023-03-27T09:56:47.979Z,72.13
2023-03-27T09:57:47.975Z,72.89
2023-03-27T09:58:48.000Z,73.36
2023-03-27T09:59:48.021Z,72.89
2023-03-27T10:00:48.057Z,72.64
2023-03-27T10:01:48.059Z,71.75
2023-03-27T10:02:48.119Z,71.56
2023-03-27T10:03:48.127Z,71.18
2023-03-27T10:04:48.119Z,70.89
2023-03-27T10:05:48.161Z,70.99
2023-03-27T10:06:48.172Z,71.18
2023-03-27T10:07:48.185Z,70.93
2023-03-27T10:08:48.206Z,70.79
2023-03-27T10:09:48.228Z,72.03
2023-03-27T10:10:48.256Z,71.56
2023-03-27T10:11:48.260Z,72.22
2023-03-27T10:12:48.286Z,72.60
2023-03-27T10:13:48.311Z,73.30
2023-03-27T10:14:49.882Z,72.03
2023-03-27T10:15:48.348Z,71.75
2023-03-27T10:16:48.387Z,71.46
2023-03-27T10:17:48.431Z,70.89
2023-03-27T10:18:48.446Z,71.37
2023-03-27T10:19:48.442Z,71.94
2023-03-27T10:20:48.454Z,71.84
2023-03-27T10:21:48.482Z,72.35
2023-03-27T10:22:48.497Z,71.78
2023-03-27T10:23:48.580Z,70.23
2023-03-27T10:24:48.539Z,69.66
2023-03-27T10:25:48.557Z,69.18
2023-03-27T10:26:48.652Z,69.21
2023-03-27T10:27:48.609Z,69.50
2023-03-27T10:28:48.619Z,68.84
2023-03-27T10:29:48.642Z,68.52
2023-03-27T10:30:48.661Z,68.23
2023-03-27T10:31:48.734Z,67.94
2023-03-27T10:32:48.724Z,68.07
2023-03-27T10:33:48.726Z,69.50
2023-03-27T10:34:48.748Z,70.07
2023-03-27T10:35:48.893Z,69.60
2023-03-27T10:36:48.797Z,67.69
2023-03-27T10:37:50.064Z,67.03
2023-03-27T10:38:48.824Z,67.13
2023-03-27T10:39:48.870Z,66.27
2023-03-27T10:40:48.874Z,64.97
2023-03-27T10:41:48.896Z,64.78
2023-03-27T10:42:48.915Z,64.59
2023-03-27T10:43:48.948Z,65.45
2023-03-27T10:44:48.968Z,64.69
2023-03-27T10:45:49.010Z,65.54
2023-03-27T10:46:49.001Z,64.31
2023-03-27T10:47:49.081Z,64.31
2023-03-27T10:48:49.044Z,65.16
2023-03-27T10:49:49.066Z,65.45
2023-03-27T10:50:49.090Z,64.65
2023-03-27T10:51:49.109Z,64.18
2023-03-27T10:52:49.136Z,64.08
2023-03-27T10:53:49.302Z,63.60
2023-03-27T10:54:49.174Z,63.99
2023-03-27T10:55:49.196Z,64.56
2023-03-27T10:56:49.241Z,65.06
2023-03-27T10:57:49.240Z,65.54
2023-03-27T10:58:49.318Z,65.83
2023-03-27T10:59:49.282Z,65.45
2023-03-27T11:00:49.301Z,64.59
2023-03-27T11:01:49.344Z,64.40
2023-03-27T11:02:49.374Z,64.21
2023-03-27T11:03:49.493Z,64.69
2023-03-27T11:04:49.393Z,64.40
2023-03-27T11:05:49.427Z,64.69
2023-03-27T11:06:49.432Z,66.02
2023-03-27T11:07:49.453Z,66.11
2023-03-27T11:08:49.472Z,66.27
2023-03-27T11:09:49.495Z,66.46
2023-03-27T11:10:49.553Z,66.55
2023-03-27T11:11:49.536Z,66.17
2023-03-27T11:12:49.560Z,66.36
2023-03-27T11:13:49.576Z,66.08
2023-03-27T11:14:49.599Z,66.65
2023-03-27T11:15:49.625Z,67.60
2023-03-27T11:16:49.725Z,67.13
2023-03-27T11:17:49.716Z,67.13
2023-03-27T11:18:49.685Z,67.88
2023-03-27T11:19:49.705Z,68.36
2023-03-27T11:20:49.728Z,68.42
2023-03-27T11:21:49.753Z,69.37
2023-03-27T11:22:49.767Z,70.42
2023-03-27T11:23:49.971Z,70.51
2023-03-27T11:24:49.810Z,70.70
2023-03-27T11:25:49.837Z,71.56
2023-03-27T11:26:49.865Z,71.46
2023-03-27T11:27:49.872Z,71.84
2023-03-27T11:28:49.894Z,71.94
2023-03-27T11:29:49.931Z,71.97
2023-03-27T11:30:49.967Z,71.37
2023-03-27T11:31:50.015Z,72.16
2023-03-27T11:32:50.050Z,72.92
2023-03-27T11:33:50.002Z,73.02
2023-03-27T11:34:50.018Z,72.92
2023-03-27T11:35:50.078Z,73.59
2023-03-27T11:36:50.062Z,73.59
2023-03-27T11:37:50.082Z,73.97
2023-03-27T11:38:50.105Z,74.82
2023-03-27T11:39:50.132Z,74.35
2023-03-27T11:40:50.156Z,74.92
2023-03-27T11:41:50.179Z,74.63
2023-03-27T11:42:50.190Z,72.64
2023-03-27T11:43:50.211Z,72.55
2023-03-27T11:44:50.234Z,71.50
2023-03-27T11:45:50.268Z,70.74
2023-03-27T11:46:50.278Z,69.21
2023-03-27T11:47:50.337Z,67.60
2023-03-27T11:48:50.326Z,67.22
2023-03-27T11:49:50.337Z,66.74
2023-03-27T11:50:50.361Z,66.27
2023-03-27T11:51:50.377Z,66.46
2023-03-27T11:52:50.399Z,66.42
2023-03-27T11:53:50.423Z,66.33
2023-03-27T11:54:50.441Z,66.52
2023-03-27T11:55:50.457Z,66.52
2023-03-27T11:56:50.524Z,67.19
2023-03-27T11:57:50.504Z,67.57
2023-03-27T11:58:50.528Z,68.71
2023-03-27T11:59:50.546Z,70.04
2023-03-27T12:00:50.564Z,70.23
2023-03-27T12:01:50.647Z,70.23
2023-03-27T12:02:50.719Z,68.33
2023-03-27T12:03:50.714Z,68.74
2023-03-27T12:04:50.644Z,69.02
2023-03-27T12:05:50.666Z,69.60
2023-03-27T12:06:50.690Z,69.41
2023-03-27T12:07:50.716Z,69.02
2023-03-27T12:08:50.732Z,68.84
2023-03-27T12:09:50.752Z,67.88
2023-03-27T12:10:50.769Z,66.46
2023-03-27T12:11:50.794Z,66.36
2023-03-27T12:12:50.813Z,66.55
2023-03-27T12:14:01.268Z,66.94
2023-03-27T12:14:50.856Z,66.49
2023-03-27T12:15:50.872Z,66.27
2023-03-27T12:16:50.935Z,65.99
2023-03-27T12:17:50.972Z,65.64
2023-03-27T12:19:02.089Z,65.25
2023-03-27T12:19:50.953Z,66.11
2023-03-27T12:20:53.636Z,65.54
2023-03-27T12:21:50.998Z,64.11
2023-03-27T12:22:51.017Z,63.73
2023-03-27T12:23:51.045Z,64.50
2023-03-27T12:24:59.256Z,64.31
2023-03-27T12:25:51.083Z,63.54
2023-03-27T12:26:51.104Z,63.35
2023-03-27T12:27:51.125Z,63.73
2023-03-27T12:28:51.157Z,64.02
2023-03-27T12:29:51.170Z,63.92
2023-03-27T12:30:51.190Z,64.62
2023-03-27T12:31:51.280Z,63.96
2023-03-27T12:32:52.647Z,63.07
2023-03-27T12:33:51.266Z,63.07
2023-03-27T12:34:51.270Z,63.35
2023-03-27T12:35:51.362Z,63.35
2023-03-27T12:36:51.314Z,63.26
2023-03-27T12:37:51.336Z,63.92
2023-03-27T12:38:51.366Z,64.40
2023-03-27T12:39:51.994Z,64.97
2023-03-27T12:40:51.403Z,65.64
2023-03-27T12:41:51.425Z,66.49
2023-03-27T12:42:51.442Z,67.73
2023-03-27T12:43:51.468Z,68.96
2023-03-27T12:44:51.484Z,69.73
2023-03-27T12:45:53.649Z,70.97
2023-03-27T12:46:51.540Z,71.02
2023-03-27T12:47:51.577Z,71.22
2023-03-27T12:48:51.572Z,71.22
2023-03-27T12:49:51.589Z,71.69
2023-03-27T12:50:51.611Z,71.88
2023-03-27T12:51:51.632Z,72.16
2023-03-27T12:52:51.648Z,72.83
2023-03-27T12:53:51.693Z,72.26